• Join FlightAware (Why Join?)
  • Login
  • US Flag 
05:05PM EDT


 

Airport Tracker/Info


-or-


 

Live Flight TrackerFlight Track Log ✈ SWA1233 ✈ 26-Apr-2014 ✈ KLAS - KSFO

Flight Track Log - Related Links

Times and Time Zones

All times are in EDT time to prevent confusion due to time zone crossing. See the SWA1233 flight status page for this flight to view local times or setup timezone preferences in your user account.

Time Position Orientation Groundspeed Altitude Reporting Facility
EDT Latitude Longitude Course Direction KTS MPH feet Rate Location/Type
02:23PM 36.0639 -115.1722 209° Southwest 167 192 3,700  Level Los Angeles Center
02:24PM 36.0133 -115.2075 209° Southwest 235 270 6,000 1,920 Climbing Los Angeles Center
02:25PM 35.9886 -115.2611 240° Southwest 260 299 7,000 900 Climbing Los Angeles Center
02:25PM 35.9739 -115.2947 242° Southwest 293 337 7,000 1,200 Level Los Angeles Center
02:26PM 35.9408 -115.3367 226° Southwest 277 319 8,300 2,700 Climbing Los Angeles Center
02:27PM 35.8881 -115.4197 232° Southwest 291 335 11,500 2,280 Climbing Los Angeles Center
02:28PM 35.8872 -115.5336 270° West 336 387 13,100 2,220 Climbing Los Angeles Center
02:29PM 35.8894 -115.6586 271° West 361 415 16,200 3,180 Climbing Los Angeles Center
02:30PM 35.8917 -115.7978 271° West 375 432 19,700 3,000 Climbing Los Angeles Center
02:31PM 35.9278 -115.9133 291° West 373 429 22,500 2,640 Climbing Los Angeles Center
02:32PM 35.9944 -115.9997 314° West 363 418 25,300 2,280 Climbing Los Angeles Center
02:33PM 36.0747 -116.1053 313° West 359 413 27,300 1,740 Climbing Los Angeles Center
02:34PM 36.1475 -116.1994 314° West 375 432 28,900 1,740 Climbing Los Angeles Center
02:35PM 36.2186 -116.2931 313° West 373 429 30,900 960 Climbing Los Angeles Center
02:36PM 36.2897 -116.3836 314° West 372 428 31,000 840 Climbing Los Angeles Center
02:37PM 36.3594 -116.4764 313° West 372 428 32,700 1,440 Climbing Los Angeles Center
02:38PM 36.4297 -116.5664 314° West 370 426 34,000 960 Climbing Los Angeles Center
02:39PM 36.5006 -116.6608 313° West 370 426 34,700 960 Climbing Los Angeles Center
02:40PM 36.5939 -116.7725 316° Northwest 381 438 36,000 960 Climbing Los Angeles Center
02:41PM 36.6858 -116.8400 330° Northwest 382 440 36,800 840 Climbing Los Angeles Center
02:42PM 36.7769 -116.9078 329° Northwest 384 442 37,800 540 Climbing Los Angeles Center
02:43PM 36.8708 -116.9811 328° Northwest 385 443 38,000 -360 Climbing Los Angeles Center
02:44PM 36.9614 -117.0533 327° Northwest 385 443 37,100 -1,080 Descending Los Angeles Center
02:45PM 36.9850 -117.1256 292° West 381 438 36,400 -780 Descending Oakland Center
02:46PM 37.0097 -117.2658 282° West 406 467 36,000 -240 Descending Oakland Center
02:47PM 37.0364 -117.4036 284° West 406 467 36,000  Level Oakland Center
02:47PM 37.0508 -117.4842 283° West 401 461 36,000  Level Los Angeles Center
02:48PM 37.0758 -117.6192 283° West 400 460 36,000  Level Los Angeles Center
02:49PM 37.0992 -117.7531 282° West 396 456 36,000  Level Los Angeles Center
02:51PM 37.1317 -117.9364 283° West 389 448 36,000  Level Oakland Center
02:52PM 37.1547 -118.0644 283° West 381 438 36,000  Level Oakland Center
02:53PM 37.1775 -118.1928 283° West 380 437 36,000  Level Oakland Center
02:54PM 37.2053 -118.3475 283° West 380 437 36,000  Level Oakland Center
02:55PM 37.2272 -118.4778 282° West 380 437 36,000  Level Oakland Center
02:56PM 37.2492 -118.6039 282° West 379 436 36,000  Level Oakland Center
02:57PM 37.2703 -118.7339 282° West 380 437 36,000  Level Oakland Center
02:58PM 37.2931 -118.8633 283° West 380 437 36,000  Level Oakland Center
02:59PM 37.3153 -118.9928 282° West 380 437 36,000  Level Oakland Center
03:00PM 37.3364 -119.1211 282° West 380 437 36,000  Level Oakland Center
03:01PM 37.3569 -119.2489 281° West 379 436 36,000 -720 Level Oakland Center
03:02PM 37.3783 -119.3761 282° West 379 436 34,600 -1,320 Descending Oakland Center
03:03PM 37.4028 -119.5281 281° West 371 427 33,400 -1,080 Descending Oakland Center
03:04PM 37.4233 -119.6536 282° West 370 426 32,500 -960 Descending Oakland Center
03:05PM 37.4433 -119.7797 281° West 369 425 31,500 -960 Descending Oakland Center
03:06PM 37.4633 -119.9078 281° West 370 426 30,600 -780 Descending Oakland Center
03:07PM 37.4842 -120.0344 282° West 370 426 30,000 -540 Descending Oakland Center
03:08PM 37.5039 -120.1606 281° West 370 426 29,500 -780 Descending Oakland Center
03:09PM 37.5236 -120.2858 281° West 368 423 28,500 -1,020 Descending Oakland Center
03:10PM 37.5425 -120.4083 281° West 360 414 27,500 -1,020 Descending Oakland Center
03:11PM 37.5614 -120.5294 281° West 355 409 26,500 -1,080 Descending Oakland Center
03:12PM 37.5803 -120.6481 281° West 350 403 25,400 -1,140 Descending Oakland Center
03:13PM 37.6011 -120.7894 281° West 343 395 24,200 -1,500 Descending Oakland Center
03:14PM 37.6175 -120.9033 280° West 332 382 22,400 -1,920 Descending Oakland Center
03:16PM 37.6167 -121.0167 270° West 331 381 20,100 -2,040 Descending Northern Cal TRACON
03:17PM 37.6000 -121.1500 261° West 340 391 18,100 -2,040 Descending Northern Cal TRACON
03:18PM 37.6000 -121.2500 270° West 332 382 16,100 -2,040 Descending Northern Cal TRACON
03:19PM 37.5833 -121.3667 260° West 320 368 14,100 -1,980 Descending Northern Cal TRACON
03:20PM 37.5667 -121.4667 258° West 310 357 12,200 -1,560 Descending Northern Cal TRACON
03:20PM 37.5500 -121.5667 258° West 296 341 11,200 -900 Descending Northern Cal TRACON
03:21PM 37.5333 -121.6667 258° West 277 319 10,500 -960 Descending Northern Cal TRACON
03:22PM 37.5167 -121.7500 256° West 271 312 9,300 -1,020 Descending Northern Cal TRACON
03:23PM 37.5000 -121.8333 256° West 240 276 8,500 -900 Descending Northern Cal TRACON
03:24PM 37.5000 -121.9167 270° West 219 252 7,500 -1,200 Descending Northern Cal TRACON
03:25PM 37.5000 -121.9833 270° West 230 265 6,300 -1,020 Descending Northern Cal TRACON
03:26PM 37.5167 -122.0500 288° West 185 213 5,600 -1,020 Descending Northern Cal TRACON
03:27PM 37.5333 -122.1000 293° West 180 207 4,300 -1,200 Descending Northern Cal TRACON
03:28PM 37.5500 -122.1667 288° West 170 196 3,200 -960 Descending Northern Cal TRACON
03:29PM 37.5667 -122.2167 293° West 156 180 2,300 -900 Descending Northern Cal TRACON
03:30PM 37.5833 -122.2667 293° West 141 162 1,500 -780 Descending Northern Cal TRACON
03:31PM 37.6000 -122.3167 293° West 126 145 800 -600 Descending Northern Cal TRACON
03:32PM 37.6000 -122.3500 270° West 129 148 300 -600 Descending Northern Cal TRACON
03:35PM 37.6167 -122.3667 322° Northwest  Level FlightAware Approximate